Time;durP1;ratioP1;P1;durP2;ratioP2;P2;SDS_P1;SDS_P2;PMS_P1;PMS_P2;Temp;Humidity;BMP_temperature;BMP_pressure;BME280_temperature;BME280_humidity;BME280_pressure;Samples;Min_cycle;Max_cycle;Signal;HPM_P1;HPM_P2
2021/12/04 00:01:11;;;;;;;17.20;7.55;;;;;;;0.25;68.21;98409.72;8409792;28;20050;-81
2021/12/04 00:05:12;;;;;;;17.33;6.97;;;;;;;0.26;67.98;98400.69;8429363;28;20037;-82
2021/12/04 00:09:15;;;;;;;15.82;7.22;;;;;;;0.22;68.39;98388.97;8411080;28;20066;-82
2021/12/04 00:13:16;;;;;;;14.50;7.70;;;;;;;0.18;67.96;98398.53;8429056;28;20397;-83
2021/12/04 00:17:16;;;;;;;15.75;7.43;;;;;;;0.12;68.50;98388.13;8428056;28;20056;-78
2021/12/04 00:21:17;;;;;;;14.63;7.18;;;;;;;0.11;68.47;98382.03;8428713;28;20060;-81
2021/12/04 00:25:18;;;;;;;16.33;7.53;;;;;;;0.09;68.90;98389.47;8428524;28;20118;-82
2021/12/04 00:29:20;;;;;;;16.65;7.35;;;;;;;0.11;69.06;98379.38;8426166;28;20067;-79
2021/12/04 00:33:23;;;;;;;17.55;7.80;;;;;;;0.06;69.55;98379.34;8427531;28;20060;-80
2021/12/04 00:37:47;;;;;;;16.42;7.47;;;;;;;0.07;69.25;98378.28;8428895;28;20056;-81
2021/12/04 00:50:27;;;;;;;21.13;8.18;;;;;;;0.07;69.47;98365.00;8434537;28;20040;-81
2021/12/04 00:54:30;;;;;;;17.02;7.70;;;;;;;0.07;69.31;98374.84;8432631;28;20062;-81
2021/12/04 00:58:31;;;;;;;22.08;8.75;;;;;;;-0.01;70.00;98362.88;8409814;28;20043;-84
2021/12/04 01:02:32;;;;;;;18.80;8.18;;;;;;;-0.02;70.00;98355.97;8433805;28;20082;-88
2021/12/04 01:06:32;;;;;;;22.75;8.73;;;;;;;-0.14;70.76;98337.59;8433160;28;20127;-84
2021/12/04 01:10:35;;;;;;;27.38;9.40;;;;;;;-0.20;71.05;98343.13;8434176;28;20052;-84
2021/12/04 01:14:36;;;;;;;17.50;8.00;;;;;;;-0.23;71.10;98344.44;8431169;28;20485;-83
2021/12/04 01:18:38;;;;;;;21.70;8.27;;;;;;;-0.25;71.07;98335.94;8433838;28;20066;-84
2021/12/04 01:22:39;;;;;;;20.23;9.20;;;;;;;-0.19;71.07;98342.06;8431624;28;20048;-81
2021/12/04 01:26:40;;;;;;;21.40;9.60;;;;;;;-0.17;71.00;98337.31;8431780;28;20063;-86
2021/12/04 01:30:41;;;;;;;28.50;9.60;;;;;;;-0.22;71.59;98329.31;8432093;28;20040;-83
2021/12/04 01:34:42;;;;;;;21.65;9.45;;;;;;;-0.33;72.16;98322.34;8430958;28;20496;-83
2021/12/04 01:38:43;;;;;;;22.48;9.13;;;;;;;-0.40;72.79;98311.16;8394229;28;20056;-82
2021/12/04 01:42:45;;;;;;;21.80;8.82;;;;;;;-0.50;73.25;98307.41;8395591;28;20056;-81
2021/12/04 01:46:46;;;;;;;22.25;9.10;;;;;;;-0.51;73.52;98305.81;8394980;28;20059;-84
2021/12/04 01:50:47;;;;;;;24.83;9.57;;;;;;;-0.50;73.54;98312.72;8395516;28;20434;-85
2021/12/04 01:54:50;;;;;;;18.42;8.50;;;;;;;-0.52;73.48;98304.19;8395178;28;20052;-83
2021/12/04 01:58:53;;;;;;;23.27;8.85;;;;;;;-0.49;73.19;98303.72;8395242;28;20436;-83
2021/12/04 02:02:53;;;;;;;21.92;9.30;;;;;;;-0.50;73.33;98302.09;8361824;28;20040;-84
2021/12/04 02:06:54;;;;;;;20.80;8.88;;;;;;;-0.49;72.93;98298.41;8378464;28;21156;-82
2021/12/04 02:10:58;;;;;;;20.95;9.13;;;;;;;-0.51;72.99;98294.41;8432572;28;20486;-85
2021/12/04 02:14:59;;;;;;;20.67;8.30;;;;;;;-0.50;72.73;98285.38;8431471;28;20412;-83
2021/12/04 02:19:00;;;;;;;25.08;9.40;;;;;;;-0.45;72.62;98283.56;8431719;28;20078;-84
2021/12/04 02:23:04;;;;;;;19.52;8.35;;;;;;;-0.42;72.51;98275.06;8431850;28;20040;-84
2021/12/04 02:27:05;;;;;;;16.70;8.15;;;;;;;-0.39;72.33;98270.31;8431157;28;20048;-86
2021/12/04 02:31:06;;;;;;;21.67;8.23;;;;;;;-0.40;72.30;98258.13;8432400;28;20044;-84
2021/12/04 02:35:08;;;;;;;16.92;8.13;;;;;;;-0.47;73.02;98261.78;8432005;28;20127;-83
2021/12/04 02:39:10;;;;;;;22.58;8.82;;;;;;;-0.47;72.62;98243.22;8430967;28;20500;-85
2021/12/04 02:43:11;;;;;;;20.70;8.50;;;;;;;-0.47;72.58;98243.22;8430635;28;20113;-84
2021/12/04 02:47:12;;;;;;;18.08;8.00;;;;;;;-0.42;72.19;98240.59;8429843;28;20059;-82
2021/12/04 02:51:15;;;;;;;21.27;8.82;;;;;;;-0.42;72.49;98229.97;8431948;28;20071;-79
2021/12/04 02:55:17;;;;;;;22.20;8.63;;;;;;;-0.45;72.47;98229.72;8428429;28;20052;-81
2021/12/04 02:59:18;;;;;;;17.13;7.53;;;;;;;-0.46;72.66;98228.91;8429656;28;20051;-83
2021/12/04 03:03:20;;;;;;;18.48;7.32;;;;;;;-0.39;72.49;98222.56;8428834;28;20044;-80
2021/12/04 03:07:21;;;;;;;16.55;6.95;;;;;;;-0.33;72.12;98216.25;8428253;28;20501;-83
2021/12/04 03:11:22;;;;;;;14.82;7.22;;;;;;;-0.25;71.10;98213.06;8429468;28;20043;-85
2021/12/04 03:15:23;;;;;;;16.90;6.68;;;;;;;-0.13;70.74;98203.03;8429641;28;20055;-85
2021/12/04 03:19:25;;;;;;;15.18;6.60;;;;;;;-0.13;71.04;98200.38;8429170;28;20418;-85
2021/12/04 03:23:30;;;;;;;21.00;7.40;;;;;;;-0.16;70.85;98195.59;8428611;28;20427;-81
2021/12/04 03:27:33;;;;;;;15.57;6.35;;;;;;;-0.16;70.64;98195.59;8427973;28;20504;-85
2021/12/04 03:44:00;;;;;;;13.50;6.28;;;;;;;-0.08;70.90;98192.44;8429238;28;20040;-84
2021/12/04 03:48:08;;;;;;;15.25;5.97;;;;;;;-0.08;70.53;98176.50;8427861;28;20048;-86
2021/12/04 03:52:09;;;;;;;14.57;6.15;;;;;;;-0.03;70.46;98184.47;8428131;28;20048;-82
2021/12/04 03:56:12;;;;;;;16.55;7.10;;;;;;;-0.04;70.30;98172.25;8428766;28;20197;-84
2021/12/04 04:00:14;;;;;;;9.80;5.32;;;;;;;-0.04;70.56;98177.56;8427723;28;20055;-85
2021/12/04 04:04:15;;;;;;;16.30;7.07;;;;;;;-0.05;70.81;98160.03;8429372;28;20123;-85
2021/12/04 04:08:16;;;;;;;14.23;6.75;;;;;;;-0.04;70.54;98166.97;8428867;28;20477;-83
2021/12/04 04:12:17;;;;;;;14.35;6.25;;;;;;;-0.04;70.43;98161.66;8428448;28;20072;-83
2021/12/04 04:16:18;;;;;;;12.75;5.93;;;;;;;0.00;70.51;98170.69;8429023;28;20044;-86
2021/12/04 04:20:20;;;;;;;13.35;5.72;;;;;;;0.00;70.30;98157.44;8428859;28;20048;-82
2021/12/04 04:24:23;;;;;;;17.10;6.55;;;;;;;0.04;70.09;98153.19;8435150;28;20052;-84
2021/12/04 04:28:24;;;;;;;19.63;5.57;;;;;;;0.06;69.69;98151.03;8417019;28;20481;-82
2021/12/04 04:32:25;;;;;;;14.30;5.63;;;;;;;0.05;69.71;98160.09;8433177;28;20040;-83
2021/12/04 04:58:26;;;;;;;12.88;4.63;;;;;;;0.07;69.18;98136.72;8362461;28;20364;-81
2021/12/04 05:11:12;;;;;;;13.43;4.50;;;;;;;0.13;68.95;98138.31;8363349;28;20059;-87
2021/12/04 05:15:20;;;;;;;15.93;5.03;;;;;;;0.19;68.23;98129.28;8350152;28;21106;-84
2021/12/04 05:19:29;;;;;;;12.43;5.65;;;;;;;0.16;68.62;98119.19;8426134;28;20060;-83
2021/12/04 05:23:43;;;;;;;15.70;5.07;;;;;;;0.26;68.35;98124.53;8415790;28;20048;-83
2021/12/04 05:27:44;;;;;;;18.13;5.50;;;;;;;0.24;68.44;98121.34;8432180;28;20071;-83
2021/12/04 05:31:45;;;;;;;13.80;6.35;;;;;;;0.30;67.86;98120.28;8433107;28;20071;-81
2021/12/04 05:35:48;;;;;;;14.35;5.50;;;;;;;0.26;68.42;98129.84;8432527;28;20044;-82
2021/12/04 05:39:49;;;;;;;13.93;6.20;;;;;;;0.23;68.71;98125.03;8398086;28;20048;-83
2021/12/04 05:43:49;;;;;;;17.42;6.00;;;;;;;0.28;68.62;98127.69;8414569;28;20071;-81
2021/12/04 05:56:20;;;;;;;17.83;6.90;;;;;;;0.19;68.57;98113.38;8432052;28;20416;-82
2021/12/04 06:00:23;;;;;;;19.67;6.60;;;;;;;0.20;68.36;98114.97;8431699;28;20052;-82
2021/12/04 06:04:25;;;;;;;14.77;5.43;;;;;;;0.19;68.05;98118.69;8431027;28;20036;-84
2021/12/04 06:08:26;;;;;;;12.00;5.15;;;;;;;0.25;67.71;98112.31;8431529;28;20115;-87
2021/12/04 06:12:27;;;;;;;12.68;4.90;;;;;;;0.21;67.83;98116.53;8428418;28;20420;-85
2021/12/04 06:16:28;;;;;;;10.77;4.60;;;;;;;0.27;67.55;98110.16;8430621;28;20048;-85
2021/12/04 06:24:48;;;;;;;13.23;5.45;;;;;;;0.27;67.88;98120.78;8430940;28;20469;-82
2021/12/04 06:28:49;;;;;;;20.95;6.53;;;;;;;0.27;67.72;98110.16;8418736;28;20040;-83
2021/12/04 06:32:51;;;;;;;21.48;6.78;;;;;;;0.24;67.88;98116.03;8430259;28;20119;-83
2021/12/04 06:36:52;;;;;;;17.20;5.65;;;;;;;0.17;68.06;98120.78;8419307;28;20048;-89
2021/12/04 06:40:54;;;;;;;12.02;5.05;;;;;;;0.14;68.46;98105.41;8430803;28;20413;-88
2021/12/04 06:44:55;;;;;;;10.45;4.38;;;;;;;0.09;68.10;98101.94;8429853;28;20093;-84
2021/12/04 06:49:04;;;;;;;22.90;6.65;;;;;;;0.06;68.64;98103.25;8430337;28;20123;-83
2021/12/04 06:57:26;;;;;;;23.98;6.82;;;;;;;0.00;68.46;98093.72;8430653;28;20048;-84
2021/12/04 07:01:26;;;;;;;23.40;7.63;;;;;;;-0.06;68.78;98100.09;8412972;28;20048;-84
2021/12/04 07:05:27;;;;;;;17.45;7.05;;;;;;;-0.09;69.04;98095.28;8430633;28;20139;-83
2021/12/04 07:09:28;;;;;;;18.42;7.70;;;;;;;-0.05;68.89;98091.84;8429687;28;20044;-84
2021/12/04 07:13:29;;;;;;;19.05;7.63;;;;;;;-0.04;69.13;98092.63;8430137;28;20052;-83
2021/12/04 07:17:30;;;;;;;20.20;7.88;;;;;;;-0.04;69.42;98092.63;8391306;28;20126;-83
2021/12/04 07:21:31;;;;;;;18.25;7.95;;;;;;;-0.07;69.20;98095.84;8391607;28;20601;-84
2021/12/04 07:25:32;;;;;;;15.27;7.00;;;;;;;-0.11;69.32;98089.47;8392284;28;20055;-83
2021/12/04 07:29:33;;;;;;;19.42;8.70;;;;;;;-0.22;69.79;98090.50;8392904;28;20052;-87
2021/12/04 07:33:34;;;;;;;24.17;7.90;;;;;;;-0.30;70.44;98099.78;8393031;28;20182;-81
2021/12/04 07:37:34;;;;;;;23.20;8.07;;;;;;;-0.27;70.64;98083.34;8376455;28;20053;-85
2021/12/04 07:41:39;;;;;;;19.05;7.97;;;;;;;-0.27;70.64;98083.34;8393082;28;20501;-85
2021/12/04 07:45:39;;;;;;;18.90;7.18;;;;;;;-0.22;70.49;98083.34;8392007;28;20059;-88
2021/12/04 07:49:41;;;;;;;22.80;7.47;;;;;;;-0.15;70.50;98085.72;8390064;28;20189;-91
2021/12/04 07:53:41;;;;;;;21.10;8.70;;;;;;;-0.11;69.98;98086.81;8405229;28;20143;-86
2021/12/04 07:57:42;;;;;;;21.27;8.02;;;;;;;-0.04;70.14;98092.63;8427724;28;20412;-90
2021/12/04 08:01:43;;;;;;;20.35;7.90;;;;;;;-0.05;69.83;98091.03;8427834;28;20048;-90
2021/12/04 08:05:46;;;;;;;19.92;8.50;;;;;;;-0.07;70.03;98082.56;8427369;28;20131;-83
2021/12/04 08:09:46;;;;;;;22.88;8.55;;;;;;;-0.01;70.00;98086.81;8426917;28;20670;-85
2021/12/04 08:13:48;;;;;;;33.08;11.60;;;;;;;0.01;69.78;98084.69;8426706;28;20044;-87
2021/12/04 08:17:48;;;;;;;32.33;11.80;;;;;;;0.06;69.60;98071.41;8425502;28;20044;-88
2021/12/04 08:21:49;;;;;;;31.33;11.60;;;;;;;0.06;69.54;98071.41;8426886;28;20080;-84
2021/12/04 08:25:50;;;;;;;32.08;12.25;;;;;;;0.14;69.16;98084.16;8424479;28;20140;-84
2021/12/04 08:29:51;;;;;;;30.30;12.05;;;;;;;0.18;69.22;98079.91;8417161;28;20067;-85
2021/12/04 08:33:52;;;;;;;34.55;13.52;;;;;;;0.26;68.69;98076.72;8392631;28;20065;-85
2021/12/04 08:37:57;;;;;;;30.05;11.07;;;;;;;0.29;68.82;98076.19;8393040;28;20041;-84
2021/12/04 08:41:59;;;;;;;36.45;11.80;;;;;;;0.35;68.35;98075.13;8424705;28;20041;-89
2021/12/04 08:46:00;;;;;;;30.67;11.25;;;;;;;0.40;68.22;98072.47;8426861;28;20052;-84
2021/12/04 08:50:01;;;;;;;30.05;11.30;;;;;;;0.50;68.14;98081.47;8424812;28;20036;-83
2021/12/04 08:54:03;;;;;;;35.55;12.30;;;;;;;0.59;67.69;98069.22;8425723;28;20052;-84
2021/12/04 08:58:06;;;;;;;29.60;10.23;;;;;;;0.74;67.36;98077.19;8426024;28;20059;-83
2021/12/04 09:02:07;;;;;;;19.98;8.25;;;;;;;0.79;66.62;98079.81;8424766;28;20044;-84
2021/12/04 09:06:09;;;;;;;18.13;6.32;;;;;;;0.92;65.34;98073.91;8406803;28;20044;-85
2021/12/04 09:10:11;;;;;;;18.30;6.47;;;;;;;1.03;65.04;98080.81;8429061;28;20504;-84
2021/12/04 09:14:15;;;;;;;13.23;5.28;;;;;;;1.04;64.13;98077.06;8430797;28;20079;-84
2021/12/04 09:18:16;;;;;;;11.23;5.03;;;;;;;1.03;63.15;98070.16;8413531;28;20044;-85
2021/12/04 09:22:25;;;;;;;12.73;4.95;;;;;;;1.09;62.44;98063.75;8431264;28;20048;-85
2021/12/04 09:26:37;;;;;;;10.88;4.75;;;;;;;1.19;61.80;98058.41;8431542;28;20040;-85
2021/12/04 10:01:11;;;;;;;17.95;5.65;;;;;;;1.68;59.56;98023.00;8430776;28;20124;-84
2021/12/04 10:14:10;;;;;;;;;;;;;;;1.71;60.63;98011.78;8421214;28;20054;-87
2021/12/04 10:35:20;;;;;;;52.13;15.18;;;;;;;1.61;61.22;97995.91;8360628;28;20410;-84
2021/12/04 10:39:21;;;;;;;53.95;14.93;;;;;;;1.68;60.62;98001.72;8357682;28;20048;-84
2021/12/04 10:43:28;;;;;;;35.50;11.07;;;;;;;1.66;59.49;97998.50;8350485;28;20054;-84
2021/12/04 10:47:28;;;;;;;32.92;11.48;;;;;;;1.61;60.87;97990.56;8343154;28;20049;-83
2021/12/04 10:51:52;;;;;;;26.80;10.02;;;;;;;1.58;62.42;98002.59;8373772;28;20045;-84
2021/12/04 10:56:06;;;;;;;29.45;13.05;;;;;;;1.44;63.52;97998.13;8343187;28;20545;-84
2021/12/04 11:00:22;;;;;;;31.10;11.88;;;;;;;1.49;63.55;97998.91;8422277;28;20052;-84
2021/12/04 11:26:20;;;;;;;30.98;12.82;;;;;;;1.25;65.34;97972.19;8352173;28;20504;-84
2021/12/04 11:43:08;;;;;;;35.47;13.18;;;;;;;1.11;66.03;97960.56;8349444;28;20068;-85
2021/12/04 11:47:10;;;;;;;46.72;17.73;;;;;;;1.09;66.03;97964.59;8374686;28;20051;-84
2021/12/04 11:51:17;;;;;;;35.58;14.18;;;;;;;1.13;66.22;97974.41;8373495;28;20079;-83
2021/12/04 11:55:20;;;;;;;28.15;11.35;;;;;;;1.13;66.62;97962.97;8347305;28;20490;-83
2021/12/04 11:59:29;;;;;;;34.45;13.45;;;;;;;1.08;66.91;97961.13;8354371;28;20052;-83
2021/12/04 12:03:31;;;;;;;;;;;;;;;1.14;67.02;97949.41;8401185;28;20477;-86
2021/12/04 12:07:32;;;;;;;20.92;8.57;;;;;;;1.27;66.77;97954.09;8425563;28;19927;-83
2021/12/04 12:11:34;;;;;;;27.85;10.25;;;;;;;1.42;66.25;97944.44;8424742;28;20056;-84
2021/12/04 12:15:36;;;;;;;23.58;9.48;;;;;;;1.53;65.76;97956.59;8426113;28;20044;-83
2021/12/04 12:19:41;;;;;;;27.45;9.15;;;;;;;1.59;65.87;97950.13;8425250;28;20050;-84
2021/12/04 12:36:52;;;;;;;12.70;6.03;;;;;;;1.30;69.88;97909.41;8426159;28;20119;-85
2021/12/04 12:41:02;;;;;;;18.73;7.18;;;;;;;1.26;71.03;97899.31;8425568;28;20096;-82
2021/12/04 12:45:27;;;;;;;24.42;8.90;;;;;;;1.38;70.49;97911.44;8430830;28;20487;-82
2021/12/04 12:49:34;;;;;;;15.88;6.95;;;;;;;1.37;71.77;97893.94;8431336;28;20046;-83
2021/12/04 12:53:44;;;;;;;13.93;5.85;;;;;;;1.37;70.82;97891.25;8431856;28;20559;-82
2021/12/04 12:57:46;;;;;;;19.88;6.63;;;;;;;1.36;70.17;97887.00;8429952;28;20036;-81
2021/12/04 13:15:03;;;;;;;19.85;7.15;;;;;;;1.54;71.20;97865.03;8307080;28;20629;-82
2021/12/04 13:19:08;;;;;;;20.25;7.03;;;;;;;1.50;71.49;97850.69;8319491;28;20152;-85
2021/12/04 13:23:15;;;;;;;21.00;7.68;;;;;;;1.53;70.67;97850.16;8319554;28;20041;-85
2021/12/04 13:31:19;;;;;;;21.35;8.32;;;;;;;1.62;70.22;97853.78;8315582;28;20049;-83
2021/12/04 13:35:21;;;;;;;20.50;8.30;;;;;;;1.60;69.66;97850.59;8327114;28;20266;-81
2021/12/04 13:39:22;;;;;;;17.27;7.30;;;;;;;1.66;69.29;97854.81;8325907;28;20101;-85
2021/12/04 13:43:24;;;;;;;14.73;6.97;;;;;;;1.70;69.21;97839.84;8427575;28;20075;-82
2021/12/04 13:47:25;;;;;;;44.00;18.83;;;;;;;1.61;68.87;97836.22;8430719;28;20036;-83
2021/12/04 13:51:26;;;;;;;45.13;17.45;;;;;;;1.58;69.23;97836.81;8430334;28;20409;-87
2021/12/04 13:55:29;;;;;;;40.20;15.07;;;;;;;1.49;69.67;97833.94;8429209;28;20063;-84
2021/12/04 13:59:29;;;;;;;38.58;15.50;;;;;;;1.42;70.32;97832.69;8429107;28;20480;-84
2021/12/04 14:03:32;;;;;;;33.83;12.65;;;;;;;1.32;70.50;97838.13;8427114;28;20052;-81
2021/12/04 14:07:33;;;;;;;40.55;14.43;;;;;;;1.33;71.16;97834.34;8429110;28;20042;-83
2021/12/04 14:11:38;;;;;;;35.03;13.07;;;;;;;1.33;71.23;97837.00;8341208;28;20383;-85
2021/12/04 14:15:43;;;;;;;34.17;13.02;;;;;;;1.32;71.67;97833.59;8393431;28;20044;-83
2021/12/04 14:19:45;;;;;;;34.13;12.50;;;;;;;1.31;72.18;97839.19;8390160;28;20429;-84
2021/12/04 14:23:50;;;;;;;31.55;10.20;;;;;;;1.32;72.29;97838.13;8375094;28;20044;-85
2021/12/04 14:27:51;;;;;;;29.77;11.65;;;;;;;1.25;73.19;97836.56;8342415;28;20090;-85
2021/12/04 14:31:53;;;;;;;28.58;11.00;;;;;;;1.22;73.13;97845.09;8341983;28;20045;-83
2021/12/04 14:35:55;;;;;;;27.92;10.88;;;;;;;1.17;73.17;97837.16;8392620;28;20541;-85
2021/12/04 14:39:56;;;;;;;33.90;12.73;;;;;;;1.13;73.33;97844.09;8391819;28;20048;-84
2021/12/04 14:43:57;;;;;;;31.55;13.35;;;;;;;1.07;72.97;97837.22;8421044;28;20048;-83
2021/12/04 14:48:14;;;;;;;31.52;12.68;;;;;;;1.05;73.04;97834.06;8428162;28;20476;-84
2021/12/04 14:52:20;;;;;;;35.47;14.32;;;;;;;0.93;72.98;97817.69;8415247;28;20158;-84
2021/12/04 14:56:23;;;;;;;38.85;13.98;;;;;;;0.79;73.30;97819.38;8428416;28;20060;-82
2021/12/04 15:00:31;;;;;;;38.85;14.88;;;;;;;0.61;74.00;97812.06;8428827;28;20447;-82
2021/12/04 15:04:39;;;;;;;39.03;15.05;;;;;;;0.52;74.04;97824.34;8429383;28;20123;-84
2021/12/04 15:08:47;;;;;;;38.70;15.15;;;;;;;0.40;74.38;97822.81;8428696;28;20056;-85
2021/12/04 15:12:48;;;;;;;39.58;16.50;;;;;;;0.31;74.38;97829.75;8427324;28;20044;-83
2021/12/04 15:16:53;;;;;;;50.63;19.42;;;;;;;0.21;75.03;97826.34;8429183;28;20059;-86
2021/12/04 15:20:58;;;;;;;49.75;18.42;;;;;;;0.17;75.33;97823.44;8429148;28;20048;-84
2021/12/04 15:25:01;;;;;;;48.28;19.17;;;;;;;0.10;75.66;97817.66;8427518;28;20040;-83
2021/12/04 15:29:02;;;;;;;50.30;19.98;;;;;;;0.07;75.66;97831.44;8427625;28;20477;-83
2021/12/04 15:33:03;;;;;;;54.70;22.40;;;;;;;0.02;75.37;97815.53;8415972;28;20047;-81
2021/12/04 15:37:05;;;;;;;52.58;20.55;;;;;;;0.00;75.50;97825.66;8427803;28;20124;-82
2021/12/04 15:41:27;;;;;;;59.72;21.25;;;;;;;-0.03;75.32;97820.88;8426113;28;20032;-81
2021/12/04 15:49:53;;;;;;;62.25;22.58;;;;;;;-0.10;75.40;97817.69;8427751;28;20052;-81
2021/12/04 15:53:58;;;;;;;54.53;21.38;;;;;;;-0.13;75.35;97818.25;8426880;28;20132;-81
2021/12/04 15:58:25;;;;;;;58.28;21.23;;;;;;;-0.18;75.67;97826.22;8428161;28;20048;-81
2021/12/04 16:02:34;;;;;;;57.35;20.15;;;;;;;-0.21;75.85;97832.09;8399257;28;20040;-80
2021/12/04 16:06:37;;;;;;;50.95;19.38;;;;;;;-0.27;76.03;97838.47;8411243;28;20036;-83
2021/12/04 16:10:39;;;;;;;46.25;18.60;;;;;;;-0.30;75.74;97833.69;8411258;28;20064;-82
2021/12/04 16:14:47;;;;;;;53.03;19.85;;;;;;;-0.33;75.65;97828.94;8390293;28;20428;-84
2021/12/04 16:18:53;;;;;;;52.72;19.80;;;;;;;-0.33;75.81;97844.84;8392674;28;20543;-83
2021/12/04 16:22:57;;;;;;;55.22;20.27;;;;;;;-0.37;75.97;97838.50;8381831;28;20067;-82
2021/12/04 16:27:11;;;;;;;51.58;20.00;;;;;;;-0.37;75.67;97843.81;8396800;28;20052;-83
2021/12/04 16:31:30;;;;;;;51.58;19.45;;;;;;;-0.39;76.12;97840.63;8417494;28;20489;-83
2021/12/04 16:39:33;;;;;;;53.58;19.02;;;;;;;-0.44;75.95;97850.19;8391041;28;20058;-85
2021/12/04 16:43:36;;;;;;;47.70;18.15;;;;;;;-0.44;75.98;97855.47;8422212;28;20044;-86
2021/12/04 16:47:43;;;;;;;51.97;19.10;;;;;;;-0.44;75.71;97866.09;8432247;28;20537;-82
2021/12/04 16:56:31;;;;;;;44.60;16.52;;;;;;;-0.44;75.52;97866.09;8434211;28;20073;-84
2021/12/04 17:00:32;;;;;;;46.67;16.70;;;;;;;-0.45;75.62;97864.50;8433690;28;20056;-82
2021/12/04 17:04:34;;;;;;;45.88;17.75;;;;;;;-0.45;75.65;97848.56;8433175;28;20059;-83
2021/12/04 17:08:36;;;;;;;42.95;15.18;;;;;;;-0.45;76.17;97843.28;8432922;28;20508;-84
2021/12/04 17:12:37;;;;;;;47.25;16.60;;;;;;;-0.38;75.85;97843.00;8432072;28;20044;-83
2021/12/04 17:16:38;;;;;;;40.67;14.82;;;;;;;-0.28;75.76;97836.88;8414842;28;20040;-85
2021/12/04 17:20:42;;;;;;;45.28;15.43;;;;;;;-0.16;75.94;97834.72;8402699;28;20473;-87
2021/12/04 17:24:42;;;;;;;44.70;15.25;;;;;;;0.03;75.59;97827.75;8429005;28;20493;-83
2021/12/04 17:28:45;;;;;;;34.72;14.27;;;;;;;0.16;75.18;97837.78;8428846;28;20055;-83
2021/12/04 17:32:46;;;;;;;38.60;14.75;;;;;;;0.29;74.83;97825.78;8411962;28;20048;-82
2021/12/04 17:36:47;;;;;;;40.92;15.60;;;;;;;0.37;74.52;97818.03;8433945;28;20051;-84
2021/12/04 17:40:48;;;;;;;35.85;14.38;;;;;;;0.45;74.22;97807.91;8429567;28;20459;-85
2021/12/04 17:44:51;;;;;;;38.00;14.30;;;;;;;0.48;73.54;97813.44;8431321;28;20052;-86
2021/12/04 17:48:54;;;;;;;37.80;14.32;;;;;;;0.54;73.28;97816.88;8431975;28;20063;-84
2021/12/04 17:52:57;;;;;;;40.17;15.13;;;;;;;0.58;72.74;97812.63;8430529;28;20400;-86
2021/12/04 17:56:58;;;;;;;39.90;15.95;;;;;;;0.61;72.65;97817.38;8423395;28;20055;-82
2021/12/04 18:01:02;;;;;;;40.15;14.75;;;;;;;0.62;72.88;97805.69;8410792;28;21359;-83
2021/12/04 18:05:06;;;;;;;34.85;13.40;;;;;;;0.55;72.51;97813.16;8405178;28;20040;-85
2021/12/04 18:09:10;;;;;;;37.88;13.57;;;;;;;0.45;72.56;97797.28;8425634;28;20036;-81
2021/12/04 18:13:14;;;;;;;31.25;13.23;;;;;;;0.34;73.25;97801.84;8409722;28;20466;-84
2021/12/04 18:17:15;;;;;;;38.15;16.35;;;;;;;0.26;73.19;97803.22;8402848;28;20050;-82
2021/12/04 18:21:16;;;;;;;42.33;15.52;;;;;;;0.11;73.51;97803.28;8431398;28;20512;-86
2021/12/04 18:25:18;;;;;;;44.40;17.67;;;;;;;0.05;73.33;97809.72;8395646;28;20638;-82
2021/12/04 18:29:19;;;;;;;41.75;16.65;;;;;;;-0.06;74.61;97813.47;8431505;28;20405;-84
2021/12/04 18:33:25;;;;;;;44.08;15.50;;;;;;;-0.08;74.53;97804.97;8431619;28;20044;-87
2021/12/04 18:37:26;;;;;;;37.50;15.77;;;;;;;-0.06;74.71;97797.53;8393536;28;20067;-86
2021/12/04 18:41:27;;;;;;;35.45;14.27;;;;;;;0.01;74.61;97792.72;8376923;28;20048;-85
2021/12/04 18:45:29;;;;;;;33.33;14.70;;;;;;;0.03;74.81;97795.91;8393254;28;20132;-87
2021/12/04 18:49:30;;;;;;;39.58;15.45;;;;;;;0.09;74.81;97784.19;8392624;28;20053;-83
2021/12/04 18:53:31;;;;;;;41.25;16.23;;;;;;;0.19;74.96;97794.75;8390950;28;20143;-83
2021/12/04 18:57:33;;;;;;;41.42;15.15;;;;;;;0.22;74.65;97788.09;8393304;28;20048;-81
2021/12/04 19:01:36;;;;;;;39.83;15.95;;;;;;;0.20;74.82;97796.34;8310138;28;20089;-83
2021/12/04 19:05:44;;;;;;;39.42;15.23;;;;;;;0.23;74.99;97790.50;8326487;28;20041;-83
2021/12/04 19:09:45;;;;;;;41.17;15.18;;;;;;;0.30;74.88;97785.69;8310465;28;20545;-87
2021/12/04 19:13:47;;;;;;;37.20;16.23;;;;;;;0.30;74.60;97801.63;8352503;28;20555;-82
2021/12/04 19:17:48;;;;;;;40.72;15.40;;;;;;;0.19;75.44;97800.06;8374687;28;20052;-83
2021/12/04 19:21:49;;;;;;;46.15;17.90;;;;;;;0.12;75.81;97799.56;8375242;28;20545;-83
2021/12/04 19:25:51;;;;;;;51.60;18.98;;;;;;;0.10;75.89;97796.41;8385891;28;20044;-84
2021/12/04 19:29:52;;;;;;;92.28;44.50;;;;;;;0.08;75.57;97793.22;8348846;28;20045;-83
2021/12/04 19:51:14;;;;;;;56.05;21.05;;;;;;;-0.17;78.47;97806.59;8401431;28;20049;-83
2021/12/04 19:55:18;;;;;;;63.25;20.70;;;;;;;-0.13;78.89;97807.63;8403304;28;20057;-84
2021/12/04 19:59:22;;;;;;;58.97;21.40;;;;;;;-0.10;78.74;97794.63;8394310;28;20064;-85
2021/12/04 20:03:43;;;;;;;52.10;19.95;;;;;;;-0.08;79.40;97789.03;8399923;28;20502;-84
2021/12/04 20:08:05;;;;;;;69.47;23.52;;;;;;;-0.07;79.57;97782.69;8414881;28;20067;-81
2021/12/04 20:16:27;;;;;;;49.08;19.20;;;;;;;-0.08;79.37;97773.13;8377726;28;20045;-81
2021/12/04 20:20:31;;;;;;;42.90;19.33;;;;;;;-0.09;79.39;97777.63;8359255;28;20047;-82
2021/12/04 20:24:35;;;;;;;49.95;20.00;;;;;;;-0.14;79.92;97779.50;8381269;28;20056;-83
2021/12/04 20:33:08;;;;;;;45.20;19.17;;;;;;;-0.13;80.21;97775.78;8373458;28;20546;-83
2021/12/04 21:50:53;;;;;;;39.95;14.98;;;;;;;0.00;81.47;97716.84;8431335;28;20559;-81
2021/12/04 21:54:57;;;;;;;37.60;14.07;;;;;;;0.02;81.63;97720.00;8378358;28;20056;-83
2021/12/04 22:12:25;;;;;;;33.70;14.05;;;;;;;0.22;81.21;97725.19;8430642;28;20608;-82
2021/12/04 22:59:13;;;;;;;39.75;15.40;;;;;;;0.60;79.61;97725.44;8419513;28;20117;-82
2021/12/04 23:13:13;;;;;;;37.45;15.60;;;;;;;0.64;79.55;97699.91;8325800;28;20506;-82
2021/12/04 23:17:27;;;;;;;40.22;15.90;;;;;;;0.66;79.17;97697.78;8296415;28;20058;-82
2021/12/04 23:34:32;;;;;;;35.40;14.98;;;;;;;0.51;78.52;97689.94;8322487;28;20140;-82
